Impacts METAR Board INFO
IDs:

KJFK - New York/Kennedy Int, NY, US

Updated at: 0419 UTC 18 Jan 2018
Potential Impact None Slight Moderate High
Time17/16Z 17/17Z 17/18Z 17/19Z 17/20Z 17/21Z 17/22Z 17/23Z 18/00Z 18/01Z 18/02Z 18/03Z 18/04Z
VIS1.25 3 2.5 8 10 10 10 10 10 10 10 10 10
CIG6 7 11 12 15 17 16 20 170 180 21 22 22
CoverOVCOVCOVCOVCOVCOVCOVCOVCOVCOVCOVCOVCBKN
FltCatIFRIFRIFRMVFRMVFRMVFRMVFRMVFRVFRVFRMVFRMVFRMVFR
WX-SN BR-SN BR-SN BR--------------------
WDir320300320320330320310310310300300320320
WSpd8 11 13 13 11 10 13 13 13 14 14 13 13
WGst-- -- -- -- -- -- -- -- -- -- -- -- --
Raw hourly METARs
KJFK 171551Z 32008KT 1 1/4SM -SN BR FEW000 BKN006 OVC026 01/01 A3026 RMK AO2 SFC VIS 2 1/2 SLP246 SN FEW000 P0004 T00110006
KJFK 171651Z 30011KT 3SM -SN BR BKN007 BKN018 OVC034 02/01 A3023 RMK AO2 SFC VIS 5 SLP237 P0001 T00170011
KJFK 171751Z 32013KT 2 1/2SM -SN BR BKN011 OVC034 01/M01 A3020 RMK AO2 SFC VIS 4 SLP227 CIG 009V013 931002 P0000 60015 T00061006 10022 20006 58022 $
KJFK 171851Z 32013KT 8SM BKN012 BKN026 OVC090 01/00 A3018 RMK AO2 SNE50 SLP218 BKN012 V SCT P0000 T00110000 $
KJFK 171951Z 33011KT 10SM BKN015 OVC200 02/M01 A3018 RMK AO2 SLP219 T00171006 $
KJFK 172051Z 32010KT 10SM BKN017 OVC030 01/M01 A3019 RMK AO2 SLP221 60000 T00111006 52003 $
KJFK 172151Z 31013KT 10SM OVC016 00/M03 A3017 RMK AO2 SLP217 T00001033 $
KJFK 172251Z 31013KT 10SM BKN020 BKN140 OVC250 M01/M05 A3019 RMK AO2 SLP223 T10111050 $
KJFK 172351Z 31013KT 10SM SCT028 BKN170 OVC250 M02/M06 A3018 RMK AO2 SLP217 931000 60000 T10171061 10017 21017 58003 $
KJFK 180051Z 30014KT 10SM SCT021 OVC180 M03/M08 A3018 RMK AO2 SLP220 T10281078 $
KJFK 180151Z 30014KT 10SM OVC021 M03/M08 A3018 RMK AO2 SLP220 T10331083 $
KJFK 180251Z 32013KT 10SM OVC022 M04/M09 A3020 RMK AO2 SLP226 T10391089 53008 $
KJFK 180351Z 32013KT 10SM BKN022 M04/M09 A3018 RMK AO2 SLP219 T10441094 $